Euskara    
Meteorología y climatología de Navarra
Datos de la estación - Meteo Navarra

Estación de Aguilar de Codés GN

Altitud 736 m.


Datos desde el 08/04/2021 hasta el 09/04/2021 en horario solar
Los datos son PROVISIONALES

Anterior Página 1 de 1 Siguiente Descargar: Formato para Excel 2000 o superior   Formato csv   Formato para OpenOffice Calc
Fecha Temperatura Humedad relativa Radiación global Insolación Precipitación Vel. viento 10 m Vel. viento 10 m Dir. viento 10 m
°C % W/m² s l/m² m/s km/h °
08/04/2021 0:00 5.7 47 0.0 0 0.0 3.0 10.9 118
08/04/2021 0:10 5.9 46 0.0 0 0.0 3.3 12.0 117
08/04/2021 0:20 5.8 45 0.0 0 0.0 3.8 13.7 115
08/04/2021 0:30 5.6 47 0.0 0 0.0 4.2 14.9 119
08/04/2021 0:40 5.2 49 0.0 0 0.0 3.6 13.0 115
08/04/2021 0:50 4.9 50 0.0 0 0.0 3.1 11.2 112
08/04/2021 1:00 4.6 51 0.0 0 0.0 3.6 13.0 112
08/04/2021 1:10 4.4 53 0.0 0 0.0 4.2 15.0 115
08/04/2021 1:20 4.1 58 0.0 0 0.0 3.9 14.0 116
08/04/2021 1:30 3.8 60 0.0 0 0.0 4.1 14.7 111
08/04/2021 1:40 3.5 63 0.0 0 0.0 3.1 11.1 108
08/04/2021 1:50 3.3 68 0.0 0 0.0 3.4 12.3 107
08/04/2021 2:00 3.3 72 0.0 0 0.0 3.6 12.9 109
08/04/2021 2:10 3.2 76 0.0 0 0.0 3.6 12.9 112
08/04/2021 2:20 3.0 79 0.0 0 0.0 2.7 9.8 107
08/04/2021 2:30 3.2 83 0.0 0 0.0 3.9 13.9 115
08/04/2021 2:40 3.5 84 0.0 0 0.0 3.7 13.2 110
08/04/2021 2:50 3.6 85 0.0 0 0.0 2.8 10.2 109
08/04/2021 3:00 3.5 86 0.0 0 0.0 3.1 11.2 115
08/04/2021 3:10 3.7 87 0.0 0 0.0 3.4 12.4 110
08/04/2021 3:20 3.7 88 0.0 0 0.0 4.0 14.4 102
08/04/2021 3:30 3.8 88 0.0 0 0.0 4.2 15.0 100
08/04/2021 3:40 3.8 89 0.0 0 0.0 4.9 17.8 100
08/04/2021 3:50 3.7 90 0.0 0 0.0 5.4 19.4 102
08/04/2021 4:00 3.7 91 0.0 0 0.0 5.0 18.1 102
08/04/2021 4:10 3.6 92 0.0 0 0.0 5.3 19.0 105
08/04/2021 4:20 3.6 92 0.0 0 0.0 5.4 19.4 103
08/04/2021 4:30 3.5 93 0.0 0 0.0 5.2 18.8 102
08/04/2021 4:40 3.4 93 0.0 0 0.0 5.0 17.8 104
08/04/2021 4:50 3.4 94 0.0 0 0.0 4.7 16.9 104
08/04/2021 5:00 3.4 94 0.0 0 0.0 3.9 14.0 104
08/04/2021 5:10 3.5 93 0.0 0 0.0 5.2 18.8 99
08/04/2021 5:20 3.6 93 0.0 0 0.0 4.4 16.0 100
08/04/2021 5:30 3.6 92 0.0 0 0.0 5.0 17.9 95
08/04/2021 5:40 3.5 93 0.0 0 0.0 4.5 16.2 101
08/04/2021 5:50 3.6 93 0.0 0 0.0 4.8 17.1 100
08/04/2021 6:00 3.6 93 0.0 0 0.0 4.4 15.9 98
08/04/2021 6:10 3.7 93 0.0 0 0.0 4.9 17.6 93
08/04/2021 6:20 3.5 93 1.2 0 0.0 4.6 16.5 100
08/04/2021 6:30 3.6 92 7.5 0 0.0 4.3 15.4 97
08/04/2021 6:40 3.7 92 20.5 0 0.0 5.0 17.9 102
08/04/2021 6:50 3.8 92 22.9 0 0.0 3.9 14.1 102
08/04/2021 7:00 3.7 91 27.8 0 0.0 4.0 14.2 104
08/04/2021 7:10 3.8 91 33.9 0 0.0 4.2 15.1 101
08/04/2021 7:20 3.9 91 40.7 0 0.0 4.5 16.1 99
08/04/2021 7:30 3.8 91 47.6 0 0.0 4.0 14.3 99
08/04/2021 7:40 4.0 91 55.3 0 0.0 4.0 14.3 101
08/04/2021 7:50 4.0 90 63.8 0 0.0 3.7 13.4 102
08/04/2021 8:00 4.1 90 69.0 0 0.0 4.0 14.4 101
08/04/2021 8:10 4.3 90 76.8 0 0.0 3.5 12.5 106
08/04/2021 8:20 4.3 90 86.8 0 0.0 3.5 12.7 100
08/04/2021 8:30 4.3 89 94.1 0 0.0 3.7 13.4 101
08/04/2021 8:40 4.4 89 90.1 0 0.0 3.8 13.6 101
08/04/2021 8:50 4.5 89 106.9 0 0.0 3.9 13.9 97
08/04/2021 9:00 4.5 88 109.3 0 0.0 3.6 12.9 96
08/04/2021 9:10 4.6 88 120.2 0 0.0 3.8 13.6 99
08/04/2021 9:20 4.8 87 122.1 0 0.0 3.8 13.8 95
08/04/2021 9:30 4.8 87 131.6 0 0.0 3.4 12.4 101
08/04/2021 9:40 5.0 87 153.1 0 0.0 4.0 14.4 99
08/04/2021 9:50 5.2 86 149.6 0 0.0 3.5 12.7 97
08/04/2021 10:00 5.3 86 157.9 0 0.0 4.3 15.5 102
08/04/2021 10:10 5.5 85 158.1 0 0.0 3.8 13.8 103
08/04/2021 10:20 5.7 85 178.2 0 0.0 3.5 12.6 102
08/04/2021 10:30 6.1 83 192.5 0 0.0 3.3 11.7 96
08/04/2021 10:40 6.4 82 208.1 0 0.0 3.2 11.4 104
08/04/2021 10:50 6.7 80 266.8 0 0.0 3.7 13.5 98
08/04/2021 11:00 7.2 79 363.5 0 0.0 3.1 11.0 93
08/04/2021 11:10 8.1 76 539.7 318 0.0 3.0 10.8 87
08/04/2021 11:20 9.2 73 608.2 600 0.0 3.5 12.5 90
08/04/2021 11:30 9.5 71 701.3 600 0.0 3.7 13.2 104
08/04/2021 11:40 9.9 70 689.0 600 0.0 3.4 12.3 102
08/04/2021 11:50 10.8 68 719.1 600 0.0 3.8 13.6 108
08/04/2021 12:00 10.5 67 616.0 596 0.0 4.2 15.0 105
08/04/2021 12:10 11.0 66 730.5 580 0.0 4.0 14.3 90
08/04/2021 12:20 10.9 66 671.6 600 0.0 3.7 13.3 100
08/04/2021 12:30 11.3 65 621.1 600 0.0 4.1 14.7 106
08/04/2021 12:40 11.6 64 749.0 600 0.0 3.0 10.8 101
08/04/2021 12:50 12.6 61 874.0 600 0.0 3.7 13.4 94
08/04/2021 13:00 12.7 61 734.4 600 0.0 3.2 11.3 100
08/04/2021 13:10 12.8 60 740.5 600 0.0 4.1 14.7 93
08/04/2021 13:20 12.9 59 722.2 600 0.0 3.9 14.0 94
08/04/2021 13:30 13.3 59 776.8 600 0.0 3.8 13.6 96
08/04/2021 13:40 13.3 59 501.4 530 0.0 3.6 13.1 95
08/04/2021 13:50 13.2 59 703.3 600 0.0 3.9 14.1 99
08/04/2021 14:00 13.9 58 827.0 600 0.0 3.3 12.0 101
08/04/2021 14:10 14.1 57 785.3 600 0.0 3.7 13.3 97
08/04/2021 14:20 14.4 56 730.6 600 0.0 3.5 12.6 100
08/04/2021 14:30 14.6 55 703.0 600 0.0 3.6 12.9 95
08/04/2021 14:40 14.6 55 615.4 600 0.0 3.2 11.5 89
08/04/2021 14:50 14.7 55 676.5 600 0.0 3.4 12.1 100
08/04/2021 15:00 15.0 54 645.3 600 0.0 3.5 12.4 92
08/04/2021 15:10 14.8 54 592.8 600 0.0 3.5 12.6 100
08/04/2021 15:20 14.8 54 587.1 600 0.0 3.8 13.5 95
08/04/2021 15:30 14.8 55 381.0 488 0.0 3.9 14.1 93
08/04/2021 15:40 14.4 56 371.5 444 0.0 3.9 13.9 105
08/04/2021 15:50 14.4 56 345.9 274 0.0 2.6 9.4 91
08/04/2021 16:00 14.4 56 374.5 404 0.0 3.0 10.9 94
08/04/2021 16:10 14.8 55 385.5 580 0.0 3.5 12.6 105
08/04/2021 16:20 14.6 56 247.6 342 0.0 3.3 12.0 103
08/04/2021 16:30 13.9 57 186.7 0 0.0 3.4 12.1 109
08/04/2021 16:40 13.7 57 153.7 0 0.0 3.6 12.8 113
08/04/2021 16:50 13.6 58 116.9 0 0.0 3.6 13.1 109
08/04/2021 17:00 13.6 58 99.4 0 0.0 2.8 10.1 107
08/04/2021 17:10 13.4 59 62.5 0 0.0 2.7 9.8 124
08/04/2021 17:20 13.2 59 52.6 0 0.0 3.4 12.2 133
08/04/2021 17:30 13.2 60 48.8 0 0.0 3.2 11.4 122
08/04/2021 17:40 13.1 61 49.3 0 0.0 2.6 9.2 123
08/04/2021 17:50 13.0 62 29.7 0 0.0 2.4 8.7 119
08/04/2021 18:00 12.8 63 17.7 0 0.0 2.2 7.8 143
08/04/2021 18:10 12.6 64 0.0 0 0.0 1.7 6.2 113
08/04/2021 18:20 12.5 66 0.0 0 0.0 1.7 5.9 135
08/04/2021 18:30 11.9 73 0.0 0 0.1 1.5 5.4 115
08/04/2021 18:40 11.5 74 0.0 0 0.1 3.6 12.9 135
08/04/2021 18:50 11.2 77 0.0 0 0.2 4.0 14.5 98
08/04/2021 19:00 10.6 81 0.0 0 0.0 3.6 12.8 120
08/04/2021 19:10 10.5 80 0.0 0 0.0 3.9 13.9 161
08/04/2021 19:20 10.6 79 0.0 0 0.0 2.2 7.8 103
08/04/2021 19:30 10.4 81 0.0 0 0.0 2.1 7.4 128
08/04/2021 19:40 10.1 83 0.0 0 0.0 0.9 3.3 128
08/04/2021 19:50 10.2 81 0.0 0 0.0 1.3 4.6 140
08/04/2021 20:00 10.5 79 0.0 0 0.0 2.0 7.3 123
08/04/2021 20:10 10.5 80 0.0 0 0.0 2.1 7.6 119
08/04/2021 20:20 10.4 79 0.0 0 0.0 2.0 7.3 115
08/04/2021 20:30 10.5 78 0.0 0 0.0 2.1 7.4 119
08/04/2021 20:40 10.5 78 0.0 0 0.0 1.8 6.4 115
08/04/2021 20:50 10.6 77 0.0 0 0.0 2.0 7.3 149
08/04/2021 21:00 10.7 76 0.0 0 0.0 2.6 9.4 161
08/04/2021 21:10 10.9 73 0.0 0 0.0 3.5 12.5 125
08/04/2021 21:20 10.8 74 0.0 0 0.1 3.1 11.0 128
08/04/2021 21:30 10.0 82 0.0 0 0.2 2.5 8.8 122
08/04/2021 21:40 9.5 87 0.0 0 0.4 0.7 2.6 132
08/04/2021 21:50 9.3 89 0.0 0 0.4 0.7 2.5 148
08/04/2021 22:00 9.2 90 0.0 0 0.6 0.8 2.7 339
08/04/2021 22:10 8.8 93 0.0 0 0.4 2.8 10.0 78
08/04/2021 22:20 8.8 94 0.0 0 0.0 1.5 5.3 171
08/04/2021 22:30 8.8 92 0.0 0 0.0 2.0 7.3 147
08/04/2021 22:40 8.7 92 0.0 0 0.0 1.4 5.1 101
08/04/2021 22:50 8.5 92 0.0 0 0.0 1.8 6.3 114
08/04/2021 23:00 8.5 93 0.0 0 0.0 1.2 4.3 104
08/04/2021 23:10 8.5 93 0.0 0 0.0 1.8 6.3 105
08/04/2021 23:20 8.4 93 0.0 0 0.0 2.0 7.2 114
08/04/2021 23:30 8.2 92 0.0 0 0.0 2.2 7.8 112
08/04/2021 23:40 8.4 91 0.0 0 0.2 2.0 7.2 108
08/04/2021 23:50 8.2 92 0.0 0 0.3 3.2 11.3 95
Anterior Página 1 de 1 Siguiente

NOTA: Tipo de datos según el color:
   - Valores diarios o 10 minutos correctos
   - Valores diarios calculados a partir de un número de datos 10 minutos menor que 144 y mayor que 120, o de un número de datos semihorarios menor que 48 y mayor que 40 (caso de las estaciones de INTIA Y Ministerio)
   - Valores diez minutos estimados


Contacto        Enlaces        Aviso legal